Time;durP1;ratioP1;P1;durP2;ratioP2;P2;SDS_P1;SDS_P2;PMS_P1;PMS_P2;Temp;Humidity;BMP_temperature;BMP_pressure;BME280_temperature;BME280_humidity;BME280_pressure;Samples;Min_cycle;Max_cycle;Signal;HPM_P1;HPM_P2
2022/05/10 00:01:31;;;;;;;19.70;14.95;;;;;;;15.48;63.88;99688.66;5164379;28;20065;-69
2022/05/10 00:04:22;;;;;;;17.52;14.73;;;;;;;15.47;64.05;99686.97;5151024;28;20060;-69
2022/05/10 00:07:12;;;;;;;16.70;13.75;;;;;;;15.32;63.87;99679.69;5151749;28;20419;-69
2022/05/10 00:10:06;;;;;;;17.33;13.70;;;;;;;15.31;62.72;99672.69;5160953;28;20242;-69
2022/05/10 00:12:57;;;;;;;20.52;15.77;;;;;;;15.36;64.08;99683.72;5158930;28;20103;-69
2022/05/10 00:15:48;;;;;;;20.77;14.65;;;;;;;15.25;63.86;99674.97;5174631;28;20200;-69
2022/05/10 00:18:38;;;;;;;18.02;14.10;;;;;;;15.10;62.97;99670.34;5128426;28;20125;-69
2022/05/10 00:21:28;;;;;;;16.05;14.13;;;;;;;15.07;64.42;99673.38;5157119;28;20445;-69
2022/05/10 00:24:18;;;;;;;17.30;13.98;;;;;;;15.04;63.30;99672.69;5147395;28;20053;-69
2022/05/10 00:27:10;;;;;;;16.30;14.13;;;;;;;15.01;63.67;99677.50;5155582;28;20050;-70
2022/05/10 00:30:00;;;;;;;16.77;13.65;;;;;;;15.01;64.10;99674.81;5140914;28;20046;-69
2022/05/10 00:32:52;;;;;;;20.60;15.20;;;;;;;15.22;64.77;99674.47;5146532;28;20073;-69
2022/05/10 00:35:41;;;;;;;19.15;15.57;;;;;;;15.07;64.20;99670.69;5161355;28;20080;-69
2022/05/10 00:38:35;;;;;;;18.58;14.27;;;;;;;14.87;64.09;99668.22;5141856;28;20070;-69
2022/05/10 00:41:39;;;;;;;20.83;13.85;;;;;;;14.83;63.83;99676.66;5142864;28;20062;-69
2022/05/10 00:44:54;;;;;;;19.63;14.05;;;;;;;14.69;64.50;99665.53;5160799;28;20058;-70
2022/05/10 00:47:53;;;;;;;18.75;13.63;;;;;;;14.73;64.26;99666.91;5162434;28;20627;-70
2022/05/10 00:50:50;;;;;;;20.10;14.25;;;;;;;14.76;65.53;99661.25;5127731;28;20061;-69
2022/05/10 00:53:51;;;;;;;18.48;15.32;;;;;;;14.87;65.18;99670.88;5151644;28;20501;-69
2022/05/10 00:56:51;;;;;;;20.15;15.13;;;;;;;14.77;66.08;99668.31;5156848;28;20057;-69
2022/05/10 00:59:53;;;;;;;19.50;14.50;;;;;;;14.62;65.71;99663.66;5142081;28;20049;-70
2022/05/10 01:02:52;;;;;;;19.45;14.70;;;;;;;14.61;65.29;99661.97;5130347;28;20306;-69
2022/05/10 01:06:07;;;;;;;25.15;14.95;;;;;;;14.64;65.52;99657.19;5149669;28;20117;-70
2022/05/10 01:09:08;;;;;;;20.73;14.95;;;;;;;14.63;65.12;99659.97;5161277;28;20137;-70
2022/05/10 01:12:06;;;;;;;19.00;14.27;;;;;;;14.57;64.98;99653.44;5145595;28;20421;-69
2022/05/10 01:15:04;;;;;;;17.33;15.13;;;;;;;14.60;65.80;99650.44;5140581;28;20433;-70
2022/05/10 01:17:57;;;;;;;20.45;15.70;;;;;;;14.53;65.20;99649.38;5155802;28;20050;-69
2022/05/10 01:20:51;;;;;;;19.83;15.90;;;;;;;14.47;64.91;99644.63;5134410;28;20058;-69
2022/05/10 01:24:12;;;;;;;25.00;17.67;;;;;;;14.67;65.88;99650.66;5150770;28;20190;-69
2022/05/10 01:27:44;;;;;;;24.25;15.55;;;;;;;14.67;65.96;99646.19;5129425;28;20058;-69
2022/05/10 01:30:34;;;;;;;22.00;17.35;;;;;;;14.64;65.58;99635.81;5118453;29;20105;-69
2022/05/10 01:33:37;;;;;;;19.85;16.50;;;;;;;14.40;66.11;99625.72;5158386;28;20520;-70
2022/05/10 01:36:32;;;;;;;20.33;16.35;;;;;;;14.33;66.13;99636.16;5156873;28;20185;-69
2022/05/10 01:39:33;;;;;;;18.70;15.13;;;;;;;14.18;65.41;99639.53;5159105;28;20504;-69
2022/05/10 01:42:32;;;;;;;19.15;15.57;;;;;;;14.09;66.41;99626.09;5144587;28;20097;-69
2022/05/10 01:45:27;;;;;;;18.05;14.45;;;;;;;14.06;65.45;99630.91;5148234;28;20073;-69
2022/05/10 01:48:20;;;;;;;19.55;16.00;;;;;;;13.95;66.04;99586.63;5158310;23;20141;-80
2022/05/10 01:51:17;;;;;;;19.63;16.15;;;;;;;14.14;66.44;99622.13;5169242;28;20042;-80
2022/05/10 01:54:38;;;;;;;21.35;17.38;;;;;;;14.22;66.62;99623.06;5175185;28;20571;-82
2022/05/10 01:57:32;;;;;;;22.90;17.70;;;;;;;14.24;66.76;99629.09;5181641;28;20068;-82
2022/05/10 02:00:26;;;;;;;22.30;18.00;;;;;;;13.98;67.11;99612.16;5161508;28;20146;-82
2022/05/10 02:03:34;;;;;;;27.55;18.33;;;;;;;14.01;67.33;99617.19;5147361;28;20638;-81
2022/05/10 02:06:35;;;;;;;21.80;17.50;;;;;;;14.01;66.45;99623.34;5150576;28;20065;-81
2022/05/10 02:09:34;;;;;;;24.55;17.30;;;;;;;13.60;66.87;99587.41;5148885;28;20053;-79
2022/05/10 02:12:44;;;;;;;22.55;17.35;;;;;;;13.72;66.01;99617.38;5148147;28;20061;-81
2022/05/10 02:15:42;;;;;;;19.48;16.63;;;;;;;13.53;66.90;99605.81;5148589;28;20460;-80
2022/05/10 02:18:38;;;;;;;22.33;16.88;;;;;;;13.83;66.62;99620.66;5164305;28;20046;-81
2022/05/10 02:21:39;;;;;;;24.63;17.83;;;;;;;13.77;66.72;99625.72;5148736;28;20136;-81
2022/05/10 02:24:36;;;;;;;23.20;17.85;;;;;;;13.77;66.46;99615.91;5167864;28;20050;-81
2022/05/10 02:27:55;;;;;;;23.92;17.15;;;;;;;13.82;66.96;99612.81;5169124;28;20106;-80
2022/05/10 02:30:46;;;;;;;26.55;18.50;;;;;;;13.89;67.18;99618.38;5131775;28;20054;-81
2022/05/10 02:33:37;;;;;;;24.38;19.52;;;;;;;13.81;67.00;99617.31;5164705;28;20129;-80
2022/05/10 02:36:27;;;;;;;26.27;19.35;;;;;;;13.83;68.03;99603.81;5150047;28;20525;-81
2022/05/10 02:39:18;;;;;;;25.98;19.80;;;;;;;13.93;67.02;99593.94;5168887;28;20057;-81
2022/05/10 02:42:10;;;;;;;24.65;19.80;;;;;;;13.88;66.69;99600.72;5180527;28;20480;-82
2022/05/10 02:45:03;;;;;;;24.98;18.38;;;;;;;13.69;67.10;99610.50;5167440;28;20146;-81
2022/05/10 02:47:53;;;;;;;26.58;19.73;;;;;;;13.66;67.28;99597.47;5167612;28;20225;-80
2022/05/10 02:50:43;;;;;;;27.38;20.83;;;;;;;13.92;67.04;99608.25;5151254;28;20089;-81
2022/05/10 02:53:33;;;;;;;25.63;20.50;;;;;;;13.90;66.78;99606.72;5167403;28;20058;-80
2022/05/10 02:56:27;;;;;;;25.95;20.40;;;;;;;13.84;66.81;99585.03;5168835;28;20065;-81
2022/05/10 02:59:29;;;;;;;27.20;19.25;;;;;;;13.71;66.73;99589.00;5161361;28;20059;-81
2022/05/10 03:02:27;;;;;;;26.70;19.45;;;;;;;13.77;66.43;99599.91;5156186;28;20060;-81
2022/05/10 03:05:17;;;;;;;23.95;20.35;;;;;;;13.74;67.29;99594.91;5160547;28;20065;-82
2022/05/10 03:08:08;;;;;;;31.75;19.60;;;;;;;13.83;66.98;99606.47;5157243;28;20089;-82
2022/05/10 03:10:58;;;;;;;22.33;18.63;;;;;;;13.72;66.79;99612.88;5126140;28;20070;-82
2022/05/10 03:13:49;;;;;;;22.23;18.00;;;;;;;13.62;66.67;99598.75;5141628;28;20434;-81
2022/05/10 03:16:43;;;;;;;23.85;19.10;;;;;;;13.59;66.80;99591.06;5133607;28;20062;-81
2022/05/10 03:19:33;;;;;;;24.85;20.35;;;;;;;13.55;68.01;99574.53;5146733;28;20436;-80
2022/05/10 03:22:23;;;;;;;23.77;20.25;;;;;;;13.78;67.13;99595.44;5147182;28;20064;-81
2022/05/10 03:25:13;;;;;;;25.92;18.73;;;;;;;13.60;66.67;99574.91;5146319;28;20494;-81
2022/05/10 03:28:05;;;;;;;26.45;19.95;;;;;;;13.56;67.61;99581.53;5146528;28;20054;-81
2022/05/10 03:30:56;;;;;;;23.00;18.75;;;;;;;13.57;67.33;99588.53;5145607;28;20054;-82
2022/05/10 03:34:54;;;;;;;23.73;19.35;;;;;;;13.53;67.15;99576.50;5163700;28;20070;-79
2022/05/10 03:36:57;;;;;;;24.98;19.33;;;;;;;13.55;67.06;99589.69;5154872;28;20054;-81
2022/05/10 03:39:47;;;;;;;24.20;18.67;;;;;;;13.37;66.91;99587.78;5145678;28;20141;-79
2022/05/10 03:42:49;;;;;;;25.27;19.08;;;;;;;13.39;67.39;99583.16;5145698;28;20524;-79
2022/05/10 03:45:39;;;;;;;26.10;19.58;;;;;;;13.48;66.95;99585.94;5162122;28;20080;-80
2022/05/10 03:48:29;;;;;;;23.23;18.67;;;;;;;13.44;66.63;99598.69;5167274;28;20053;-80
2022/05/10 03:51:20;;;;;;;22.70;18.88;;;;;;;13.31;66.67;99577.75;5165189;28;20058;-81
2022/05/10 03:54:10;;;;;;;24.25;18.92;;;;;;;13.42;67.45;99587.34;5179014;28;20523;-78
2022/05/10 03:57:00;;;;;;;29.90;19.90;;;;;;;13.50;67.46;99586.63;5166735;28;20136;-81
2022/05/10 03:59:50;;;;;;;27.35;20.08;;;;;;;13.41;67.13;99588.34;5163511;28;20241;-80
2022/05/10 04:02:41;;;;;;;25.70;19.23;;;;;;;13.31;67.17;99579.53;5142293;28;20137;-78
2022/05/10 04:05:31;;;;;;;24.90;20.58;;;;;;;13.37;67.65;99587.78;5165192;28;20501;-81
2022/05/10 04:08:23;;;;;;;27.45;20.98;;;;;;;13.46;67.68;99602.06;5138917;28;20053;-80
2022/05/10 04:11:14;;;;;;;29.35;20.27;;;;;;;13.17;67.80;99573.69;5150194;28;20061;-79
2022/05/10 04:14:05;;;;;;;28.08;20.80;;;;;;;13.39;67.71;99569.00;5164409;28;20429;-79
2022/05/10 04:16:55;;;;;;;25.67;21.10;;;;;;;13.58;67.38;99592.88;5158033;28;20229;-80
2022/05/10 04:19:45;;;;;;;28.58;21.90;;;;;;;13.61;67.24;99579.28;5148797;28;20140;-80
2022/05/10 04:22:36;;;;;;;28.90;21.38;;;;;;;13.80;66.85;99570.31;5144543;28;20054;-80
2022/05/10 04:25:36;;;;;;;27.83;21.98;;;;;;;13.99;66.66;99588.00;5145780;28;20543;-79
2022/05/10 04:28:26;;;;;;;26.00;21.00;;;;;;;13.91;67.48;99589.72;5149720;28;20512;-80
2022/05/10 04:31:16;;;;;;;27.80;21.35;;;;;;;13.99;67.06;99597.84;5145306;28;20105;-80
2022/05/10 04:34:07;;;;;;;25.63;21.10;;;;;;;13.86;67.26;99592.84;5138553;28;20066;-79
2022/05/10 04:36:57;;;;;;;25.73;20.38;;;;;;;13.86;67.01;99584.88;5125663;29;20133;-81
2022/05/10 04:42:56;;;;;;;26.08;20.92;;;;;;;14.40;65.63;99587.53;5153389;28;20422;-81
2022/05/10 04:45:46;;;;;;;27.00;20.88;;;;;;;14.54;65.58;99587.88;5152501;28;20114;-80
2022/05/10 04:48:37;;;;;;;25.90;21.52;;;;;;;14.48;65.61;99583.13;5148586;28;20050;-79
2022/05/10 04:51:28;;;;;;;31.33;21.50;;;;;;;14.50;65.76;99598.97;5147906;28;20118;-78
2022/05/10 04:54:20;;;;;;;27.40;20.98;;;;;;;14.33;66.33;99564.13;5161767;28;20058;-78
2022/05/10 04:57:11;;;;;;;26.17;21.50;;;;;;;14.55;65.81;99594.03;5173595;28;20059;-79
2022/05/10 05:00:02;;;;;;;28.70;22.58;;;;;;;14.62;65.71;99591.59;5157306;28;20046;-78
2022/05/10 05:02:53;;;;;;;28.00;21.80;;;;;;;14.72;65.91;99605.69;5157276;28;20054;-79
2022/05/10 05:05:43;;;;;;;26.75;21.67;;;;;;;14.73;65.83;99592.16;5157254;28;20053;-80
2022/05/10 05:08:33;;;;;;;27.23;21.60;;;;;;;14.81;65.50;99591.41;5137419;28;20047;-80
2022/05/10 05:11:24;;;;;;;32.10;21.38;;;;;;;15.12;64.71;99590.91;5169015;28;20493;-80
2022/05/10 05:14:15;;;;;;;25.13;20.02;;;;;;;15.35;62.92;99591.22;5147643;28;20056;-80
2022/05/10 05:17:05;;;;;;;24.73;20.13;;;;;;;15.45;63.51;99608.78;5149534;28;20140;-81
2022/05/10 05:19:55;;;;;;;27.05;21.20;;;;;;;15.38;63.41;99618.44;5152768;28;20126;-80
2022/05/10 05:22:45;;;;;;;26.20;20.48;;;;;;;15.38;63.17;99607.75;5154554;28;20189;-80
2022/05/10 05:25:38;;;;;;;30.25;21.33;;;;;;;15.54;63.56;99614.19;5145986;28;20130;-81
2022/05/10 05:28:30;;;;;;;25.05;20.48;;;;;;;15.43;63.82;99612.59;5157370;28;20072;-81
2022/05/10 05:31:20;;;;;;;25.30;19.27;;;;;;;15.60;63.23;99613.56;5165931;28;20104;-81
2022/05/10 05:34:11;;;;;;;23.45;19.70;;;;;;;15.56;63.80;99609.50;5142970;28;20106;-82
2022/05/10 05:40:15;;;;;;;23.30;19.10;;;;;;;15.57;63.46;99606.69;5139602;28;20116;-82
2022/05/10 05:43:16;;;;;;;28.20;20.25;;;;;;;15.93;62.61;99615.34;5163848;28;20081;-80
2022/05/10 05:46:08;;;;;;;26.77;19.75;;;;;;;16.04;62.47;99614.22;5162612;28;20104;-80
2022/05/10 05:49:01;;;;;;;26.88;20.08;;;;;;;16.04;62.62;99616.06;5146558;28;20054;-80
2022/05/10 05:51:56;;;;;;;31.00;20.02;;;;;;;16.51;60.72;99610.91;5149615;28;20061;-81
2022/05/10 05:54:46;;;;;;;29.15;21.30;;;;;;;16.37;62.64;99625.81;5153339;28;20051;-79
2022/05/10 05:57:37;;;;;;;30.17;20.42;;;;;;;16.46;61.67;99618.63;5153743;28;20050;-80
2022/05/10 06:00:28;;;;;;;25.85;20.52;;;;;;;16.36;62.75;99605.41;5158222;28;20057;-79
2022/05/10 06:03:19;;;;;;;37.55;20.65;;;;;;;16.58;63.12;99637.84;5157960;28;20056;-79
2022/05/10 06:06:10;;;;;;;29.90;21.30;;;;;;;16.63;62.79;99614.13;5133846;28;20069;-79
2022/05/10 06:09:06;;;;;;;46.50;29.48;;;;;;;16.87;62.18;99624.84;5144068;28;20073;-79
2022/05/10 06:11:56;;;;;;;25.55;19.15;;;;;;;16.96;61.41;99619.47;5149673;28;20058;-81
2022/05/10 06:14:47;;;;;;;30.65;19.27;;;;;;;17.11;61.29;99620.44;5167694;28;20055;-82
2022/05/10 06:17:42;;;;;;;27.45;19.88;;;;;;;17.24;61.40;99617.22;5148548;28;20447;-81
2022/05/10 06:20:33;;;;;;;28.40;20.27;;;;;;;17.48;60.42;99608.28;5154649;28;20113;-77
2022/05/10 06:23:23;;;;;;;26.60;20.13;;;;;;;17.50;60.91;99612.47;5167251;28;20073;-81
2022/05/10 06:26:13;;;;;;;27.85;20.40;;;;;;;17.67;59.89;99597.13;5138758;28;20051;-77
2022/05/10 06:29:03;;;;;;;34.10;19.88;;;;;;;18.03;59.44;99607.38;5156540;28;20042;-81
2022/05/10 06:31:54;;;;;;;27.75;20.63;;;;;;;18.07;60.70;99608.69;5158295;28;20463;-79
2022/05/10 06:34:44;;;;;;;32.53;21.23;;;;;;;18.16;59.62;99601.44;5146232;28;20326;-80
2022/05/10 06:40:44;;;;;;;30.10;20.45;;;;;;;18.51;59.71;99616.13;5145289;28;20129;-79
2022/05/10 06:43:35;;;;;;;26.63;19.40;;;;;;;18.80;57.96;99628.81;5147188;28;20146;-79
2022/05/10 06:46:34;;;;;;;29.90;19.65;;;;;;;18.74;57.90;99614.28;5147472;28;20098;-80
2022/05/10 06:49:25;;;;;;;22.73;19.90;;;;;;;18.98;58.91;99620.44;5156543;28;20107;-80
2022/05/10 06:52:17;;;;;;;28.83;20.30;;;;;;;19.06;58.55;99598.84;5152945;28;20058;-80
2022/05/10 06:55:09;;;;;;;25.95;19.25;;;;;;;19.35;57.15;99597.22;5159199;28;20508;-80
2022/05/10 06:58:03;;;;;;;25.80;17.65;;;;;;;19.60;56.85;99595.91;5155041;28;20101;-80
2022/05/10 07:00:57;;;;;;;23.20;17.58;;;;;;;19.99;56.41;99608.19;5153767;28;20112;-81
2022/05/10 07:03:49;;;;;;;24.02;17.55;;;;;;;19.98;54.42;99603.00;5141806;28;20068;-80
2022/05/10 07:06:40;;;;;;;23.65;17.67;;;;;;;20.27;55.00;99608.28;5154264;28;20069;-80
2022/05/10 07:09:30;;;;;;;25.90;18.27;;;;;;;20.26;55.71;99600.38;5159739;28;20046;-80
2022/05/10 07:12:22;;;;;;;24.42;17.30;;;;;;;20.58;54.81;99599.06;5156123;28;20061;-81
2022/05/10 07:15:16;;;;;;;23.05;16.90;;;;;;;20.69;54.60;99592.31;5157346;28;20134;-81
2022/05/10 07:18:13;;;;;;;22.13;16.92;;;;;;;21.35;52.60;99590.13;5165622;28;20108;-81
2022/05/10 07:21:03;;;;;;;24.50;16.08;;;;;;;21.25;51.89;99568.03;5126474;29;20073;-79
2022/05/10 07:23:53;;;;;;;22.25;16.35;;;;;;;21.70;51.50;99573.91;5153227;28;20054;-81
2022/05/10 07:26:48;;;;;;;23.88;15.95;;;;;;;22.23;51.31;99588.41;5160166;28;20058;-79
2022/05/10 07:29:38;;;;;;;19.80;14.85;;;;;;;22.90;49.71;99604.66;5169799;28;20129;-80
2022/05/10 07:32:29;;;;;;;21.08;14.60;;;;;;;23.05;48.05;99590.97;5156717;28;20080;-80
2022/05/10 07:38:31;;;;;;;17.38;13.90;;;;;;;24.54;46.96;99585.34;5169625;28;20655;-80
2022/05/10 07:41:22;;;;;;;18.63;14.32;;;;;;;25.21;46.06;99601.06;5159910;28;20058;-78
2022/05/10 07:44:13;;;;;;;18.15;13.98;;;;;;;25.24;43.69;99584.34;5145398;28;20074;-79
2022/05/10 07:47:04;;;;;;;16.15;12.73;;;;;;;26.02;43.89;99599.91;5149992;28;20421;-79
2022/05/10 07:49:55;;;;;;;17.77;13.85;;;;;;;26.53;43.30;99595.03;5140198;28;20054;-81
2022/05/10 07:52:45;;;;;;;18.52;13.15;;;;;;;27.16;41.73;99597.13;5151534;28;20197;-81
2022/05/10 07:55:36;;;;;;;17.17;12.73;;;;;;;27.41;39.94;99585.97;5159839;28;20116;-81
2022/05/10 07:58:26;;;;;;;16.38;11.90;;;;;;;27.74;39.96;99584.47;5159060;28;20065;-78
2022/05/10 08:01:17;;;;;;;16.58;11.25;;;;;;;27.82;38.90;99578.69;5149972;28;20043;-79
2022/05/10 08:04:08;;;;;;;14.52;10.88;;;;;;;27.94;39.84;99582.16;5177732;22;20049;-70
2022/05/10 08:06:58;;;;;;;12.15;10.52;;;;;;;27.74;40.32;99587.19;5159165;28;20057;-70
2022/05/10 08:09:48;;;;;;;20.40;11.63;;;;;;;27.80;38.27;99584.34;5161567;28;20042;-70
2022/05/10 08:12:39;;;;;;;14.20;10.75;;;;;;;27.82;38.85;99590.41;5141156;28;20059;-70
2022/05/10 08:15:30;;;;;;;17.75;10.18;;;;;;;28.18;39.38;99582.06;5145809;28;20054;-70
2022/05/10 08:18:22;;;;;;;13.50;10.55;;;;;;;29.05;39.29;99575.41;5150687;28;20078;-70
2022/05/10 08:21:13;;;;;;;19.48;12.07;;;;;;;29.26;37.52;99580.88;5141154;28;20531;-70
2022/05/10 08:24:05;;;;;;;12.98;11.15;;;;;;;29.71;35.54;99585.31;5126004;28;20153;-70
2022/05/10 08:26:55;;;;;;;14.95;10.73;;;;;;;29.94;37.02;99573.28;5141639;28;20068;-70
2022/05/10 08:29:45;;;;;;;16.08;11.40;;;;;;;29.81;37.27;99578.34;5141643;28;20058;-70
2022/05/10 08:32:36;;;;;;;13.48;10.80;;;;;;;30.39;36.45;99577.56;5136379;28;20062;-70
2022/05/10 08:35:48;;;;;;;15.07;10.27;;;;;;;29.80;34.91;99572.03;5130500;28;20054;-71
2022/05/10 08:38:39;;;;;;;12.50;10.15;;;;;;;29.56;35.06;99573.34;5142032;28;20057;-71
2022/05/10 08:41:55;;;;;;;12.88;9.85;;;;;;;30.19;34.32;99578.22;5110264;28;20058;-71
2022/05/10 08:44:53;;;;;;;11.80;9.80;;;;;;;29.85;34.01;99569.34;5135568;28;20086;-71
2022/05/10 08:47:43;;;;;;;12.75;8.70;;;;;;;29.90;34.45;99561.22;5141887;28;20077;-71
2022/05/10 08:50:36;;;;;;;11.70;8.82;;;;;;;29.95;34.28;99563.16;5144172;28;20442;-71
2022/05/10 08:53:28;;;;;;;11.02;7.95;;;;;;;30.47;33.25;99564.53;5145740;28;20141;-71
2022/05/10 08:56:24;;;;;;;9.90;8.07;;;;;;;30.75;35.16;99561.44;5145392;28;20202;-71
2022/05/10 08:59:20;;;;;;;13.15;7.00;;;;;;;30.51;32.45;99563.75;5145125;28;20046;-72
2022/05/10 09:02:16;;;;;;;9.88;7.15;;;;;;;30.58;33.73;99566.25;5129734;28;20058;-71
2022/05/10 09:05:18;;;;;;;14.40;7.10;;;;;;;30.09;34.16;99558.13;5144670;28;20050;-71
2022/05/10 09:08:35;;;;;;;13.10;7.35;;;;;;;30.82;33.78;99564.81;5135935;28;20054;-71
2022/05/10 09:11:34;;;;;;;9.98;7.30;;;;;;;30.53;34.46;99556.09;5128078;28;20062;-71
2022/05/10 09:14:33;;;;;;;8.35;7.30;;;;;;;30.43;35.57;99558.72;5141739;28;20074;-71
2022/05/10 09:17:29;;;;;;;9.15;7.25;;;;;;;30.66;34.16;99541.97;5144400;28;20061;-71
2022/05/10 09:20:19;;;;;;;10.73;6.82;;;;;;;30.56;34.18;99552.00;5131058;28;20079;-71
2022/05/10 09:23:25;;;;;;;8.90;7.18;;;;;;;31.09;32.72;99548.31;5145154;28;20401;-71
2022/05/10 09:26:15;;;;;;;13.35;7.25;;;;;;;31.11;33.78;99548.03;5130491;28;20057;-71
2022/05/10 09:29:44;;;;;;;12.98;7.15;;;;;;;31.03;31.84;99548.56;5134161;28;20054;-71
2022/05/10 09:35:54;;;;;;;8.07;6.70;;;;;;;31.59;33.70;99541.44;5143682;28;20047;-71
2022/05/10 09:38:46;;;;;;;9.55;6.43;;;;;;;31.53;34.05;99545.25;5134074;28;20065;-71
2022/05/10 09:41:46;;;;;;;10.15;6.85;;;;;;;31.09;31.51;99541.97;5143723;28;20074;-71
2022/05/10 09:44:37;;;;;;;8.07;6.40;;;;;;;31.65;32.76;99531.31;5143848;28;20059;-71
2022/05/10 09:47:27;;;;;;;13.10;6.53;;;;;;;31.70;31.93;99528.59;5139969;28;20051;-71
2022/05/10 09:50:21;;;;;;;8.68;6.60;;;;;;;31.42;31.20;99529.03;5143489;28;20046;-71
2022/05/10 09:53:30;;;;;;;7.70;6.38;;;;;;;31.47;30.85;99520.84;5144057;28;20063;-71
2022/05/10 09:56:23;;;;;;;17.58;6.20;;;;;;;31.69;31.26;99529.69;5134494;28;20059;-71
2022/05/10 09:59:22;;;;;;;10.05;6.30;;;;;;;31.53;28.85;99525.25;5144015;28;20050;-71
2022/05/10 10:02:33;;;;;;;10.82;6.05;;;;;;;31.26;32.55;99523.47;5142661;28;20124;-72
2022/05/10 10:05:30;;;;;;;8.27;6.00;;;;;;;31.98;29.70;99518.25;5143554;28;20058;-71
2022/05/10 10:08:37;;;;;;;8.60;5.57;;;;;;;31.80;29.57;99512.16;5144349;28;20050;-71
2022/05/10 10:11:31;;;;;;;10.27;5.60;;;;;;;30.76;30.74;99508.41;5133222;28;20089;-71
2022/05/10 10:14:38;;;;;;;6.22;5.45;;;;;;;30.33;28.86;99510.25;5137038;28;20057;-71
2022/05/10 10:17:32;;;;;;;5.97;4.80;;;;;;;30.03;31.73;99509.91;5136417;28;20428;-71
2022/05/10 10:20:36;;;;;;;8.85;5.60;;;;;;;28.82;32.79;99508.97;5129657;28;20561;-71
2022/05/10 10:23:36;;;;;;;7.60;5.40;;;;;;;29.47;33.17;99507.38;5138120;28;20074;-71
2022/05/10 10:26:51;;;;;;;9.85;5.05;;;;;;;30.43;32.31;99507.59;5143940;28;20166;-72
2022/05/10 10:29:49;;;;;;;8.68;5.47;;;;;;;30.39;30.74;99506.44;5142649;28;20537;-72
2022/05/10 10:32:45;;;;;;;12.85;5.40;;;;;;;30.18;32.01;99505.47;5143274;28;20404;-69
2022/05/10 10:35:53;;;;;;;7.35;4.78;;;;;;;30.55;33.20;99498.34;5143406;28;20053;-72
2022/05/10 10:38:46;;;;;;;9.38;5.13;;;;;;;30.63;30.70;99497.88;5143276;28;20051;-72
2022/05/10 10:41:56;;;;;;;6.68;5.07;;;;;;;30.77;31.02;99490.06;5142636;28;20047;-71
2022/05/10 10:44:55;;;;;;;8.45;5.30;;;;;;;30.66;32.90;99486.38;5142966;28;20440;-70
2022/05/10 10:48:04;;;;;;;7.97;5.50;;;;;;;30.08;32.25;99479.91;5135643;28;20069;-72
2022/05/10 10:50:56;;;;;;;9.43;5.15;;;;;;;29.76;31.09;99483.41;5140271;28;20070;-71
2022/05/10 10:53:46;;;;;;;7.63;4.80;;;;;;;30.51;30.84;99472.63;5135394;28;20193;-71
2022/05/10 10:56:56;;;;;;;6.93;5.13;;;;;;;30.06;31.24;99469.22;5139260;28;20066;-73
2022/05/10 11:00:14;;;;;;;8.23;5.75;;;;;;;30.18;33.03;99469.06;5143250;28;20057;-71
2022/05/10 11:03:11;;;;;;;7.00;5.50;;;;;;;30.05;30.56;99455.81;5142598;28;20504;-71
2022/05/10 11:06:24;;;;;;;6.63;5.00;;;;;;;29.76;31.29;99456.09;5152870;28;20058;-71
2022/05/10 11:09:38;;;;;;;6.18;5.57;;;;;;;30.20;33.59;99445.03;5143064;28;20568;-70
2022/05/10 11:12:49;;;;;;;;;;;;;;;29.22;31.15;99454.09;5137235;28;20066;-70
2022/05/10 11:15:48;;;;;;;9.73;4.65;;;;;;;29.53;30.85;99454.44;5145998;28;20305;-68
2022/05/10 11:18:51;;;;;;;9.60;5.20;;;;;;;28.99;31.71;99446.97;5134166;28;20062;-69
2022/05/10 11:21:59;;;;;;;5.65;5.10;;;;;;;28.75;31.33;99440.09;5133598;28;20055;-71
2022/05/10 11:25:09;;;;;;;7.90;5.25;;;;;;;27.96;31.83;99427.41;5131481;28;20047;-70
2022/05/10 11:28:23;;;;;;;8.02;5.30;;;;;;;27.90;32.56;99436.56;5132798;28;20058;-70
2022/05/10 11:31:43;;;;;;;5.85;5.25;;;;;;;27.77;32.27;99434.97;5132627;28;20569;-69
2022/05/10 11:34:55;;;;;;;9.23;5.45;;;;;;;26.82;34.51;99432.78;5125320;28;20043;-69
2022/05/10 11:38:15;;;;;;;8.07;5.07;;;;;;;27.12;33.86;99433.44;5130677;28;20530;-70
2022/05/10 11:41:32;;;;;;;6.50;5.90;;;;;;;27.57;34.41;99429.13;5120138;28;20143;-70
2022/05/10 11:44:43;;;;;;;7.72;5.50;;;;;;;28.17;33.75;99425.00;5132135;28;20062;-69
2022/05/10 11:48:12;;;;;;;6.70;5.68;;;;;;;28.05;33.46;99417.75;5132923;28;20600;-69
2022/05/10 11:51:43;;;;;;;7.05;5.28;;;;;;;28.06;32.49;99422.13;5131740;28;20050;-72
2022/05/10 11:54:41;;;;;;;6.70;5.13;;;;;;;27.74;32.95;99419.09;5130467;28;20043;-70
2022/05/10 11:57:34;;;;;;;8.68;5.60;;;;;;;28.28;34.01;99415.94;5125948;28;20082;-70
2022/05/10 12:00:31;;;;;;;11.55;5.57;;;;;;;27.75;33.06;99409.88;5141170;28;20050;-69
2022/05/10 12:03:41;;;;;;;11.07;5.32;;;;;;;28.08;36.52;99403.63;5142107;28;20059;-70
2022/05/10 12:06:34;;;;;;;7.78;5.13;;;;;;;28.14;35.64;99400.97;5140726;28;20066;-71
2022/05/10 12:09:59;;;;;;;7.60;5.32;;;;;;;27.88;34.38;99392.38;5142053;28;20106;-71
2022/05/10 12:12:56;;;;;;;5.97;5.35;;;;;;;27.82;32.87;99388.75;5131447;28;20074;-72
2022/05/10 12:22:07;;;;;;;6.13;5.13;;;;;;;27.30;34.12;99379.91;5140551;28;20081;-72
2022/05/10 12:25:00;;;;;;;6.50;5.32;;;;;;;27.10;38.24;99378.41;5142013;28;20073;-71
2022/05/10 12:28:00;;;;;;;5.72;5.05;;;;;;;27.90;36.70;99375.78;5128383;28;20136;-70
2022/05/10 12:30:50;;;;;;;6.88;5.25;;;;;;;27.74;35.99;99364.59;5132299;28;20519;-72
2022/05/10 12:33:57;;;;;;;6.18;5.10;;;;;;;26.91;34.23;99344.28;5127126;28;20534;-70
2022/05/10 12:36:47;;;;;;;7.05;5.07;;;;;;;27.63;37.09;99363.59;5128099;28;20208;-70
2022/05/10 12:39:37;;;;;;;7.88;5.05;;;;;;;27.61;33.48;99364.91;5139635;28;20050;-70
2022/05/10 12:42:43;;;;;;;10.88;5.38;;;;;;;27.37;33.97;99354.16;5141098;28;20409;-70
2022/05/10 12:46:09;;;;;;;8.40;5.55;;;;;;;27.82;36.28;99360.69;5137733;28;20050;-70
2022/05/10 12:49:23;;;;;;;8.40;4.97;;;;;;;28.12;34.67;99348.63;5141285;28;20058;-70
2022/05/10 12:52:39;;;;;;;8.35;5.00;;;;;;;28.08;33.48;99343.66;5137592;28;20051;-70
2022/05/10 12:55:35;;;;;;;9.45;5.13;;;;;;;27.86;34.73;99342.75;5140692;28;20150;-70
2022/05/10 12:58:34;;;;;;;6.82;5.40;;;;;;;28.03;34.90;99343.56;5141211;28;20097;-69
2022/05/10 13:01:31;;;;;;;6.38;5.07;;;;;;;28.10;35.06;99335.22;5140415;28;20052;-70
2022/05/10 13:04:26;;;;;;;6.55;4.88;;;;;;;27.91;33.80;99342.00;5135613;28;20520;-70
2022/05/10 13:07:43;;;;;;;6.65;5.93;;;;;;;27.91;37.22;99325.66;5140422;28;20892;-70
2022/05/10 13:10:35;;;;;;;7.15;5.40;;;;;;;28.40;34.97;99334.03;5131609;28;20565;-70
2022/05/10 13:13:31;;;;;;;7.05;4.70;;;;;;;27.96;32.23;99332.03;5141050;28;20088;-71
2022/05/10 13:16:22;;;;;;;6.32;5.55;;;;;;;27.51;32.05;99321.16;5140842;28;20071;-71
2022/05/10 13:19:13;;;;;;;8.73;5.30;;;;;;;27.31;32.06;99316.19;5133917;28;20149;-71
2022/05/10 13:22:09;;;;;;;9.30;5.13;;;;;;;27.73;32.35;99311.19;5137025;28;20050;-70
2022/05/10 13:25:04;;;;;;;8.75;5.38;;;;;;;27.43;32.97;99308.78;5140879;28;20100;-70
2022/05/10 13:28:15;;;;;;;9.85;5.70;;;;;;;27.54;32.96;99304.34;5140649;28;20185;-69
2022/05/10 13:31:17;;;;;;;6.85;5.10;;;;;;;27.81;34.41;99301.78;5138753;28;20417;-69
2022/05/10 13:34:09;;;;;;;5.32;4.82;;;;;;;28.14;33.32;99297.38;5115469;28;20536;-70
2022/05/10 13:36:59;;;;;;;9.02;5.38;;;;;;;28.30;34.84;99293.78;5144423;28;20114;-70
2022/05/10 13:39:49;;;;;;;12.60;5.10;;;;;;;28.35;31.98;99296.59;5144720;28;20058;-69
2022/05/10 13:42:45;;;;;;;6.85;4.95;;;;;;;28.40;33.24;99280.31;5144275;28;20137;-70
2022/05/10 13:45:36;;;;;;;11.15;5.35;;;;;;;28.47;32.42;99289.13;5140475;28;20186;-71
2022/05/10 13:48:37;;;;;;;6.43;4.85;;;;;;;28.15;31.16;99286.25;5144179;28;20074;-70
2022/05/10 13:51:36;;;;;;;7.47;5.20;;;;;;;27.85;32.24;99289.34;5135463;28;20054;-71
2022/05/10 13:54:34;;;;;;;8.77;5.15;;;;;;;28.56;32.24;99287.59;5143679;28;20140;-70
2022/05/10 13:57:35;;;;;;;14.13;5.40;;;;;;;28.51;32.50;99282.09;5136394;28;20617;-70
2022/05/10 14:00:38;;;;;;;12.20;5.03;;;;;;;28.37;32.34;99280.78;5143884;28;20057;-72